createdAt,value
2022-12-14T00:01:49.513Z,-8.99
2022-12-14T00:04:18.679Z,-9.03
2022-12-14T00:06:47.344Z,-9.06
2022-12-14T00:09:18.112Z,-9.10
2022-12-14T00:11:46.805Z,-9.14
2022-12-14T00:14:15.554Z,-9.17
2022-12-14T00:16:44.276Z,-9.22
2022-12-14T00:19:13.029Z,-9.27
2022-12-14T00:21:41.693Z,-9.32
2022-12-14T00:24:12.384Z,-9.39
2022-12-14T00:26:41.062Z,-9.49
2022-12-14T00:29:09.883Z,-9.52
2022-12-14T00:31:40.045Z,-9.57
2022-12-14T00:34:09.127Z,-9.60
2022-12-14T00:36:39.515Z,-9.63
2022-12-14T00:39:11.419Z,-9.67
2022-12-14T00:41:41.604Z,-9.70
2022-12-14T00:44:10.751Z,-9.73
2022-12-14T00:46:40.707Z,-9.77
2022-12-14T00:49:10.613Z,-9.80
2022-12-14T00:51:41.757Z,-9.82
2022-12-14T00:54:11.238Z,-9.87
2022-12-14T00:56:40.145Z,-9.91
2022-12-14T00:59:11.607Z,-9.95
2022-12-14T01:01:40.459Z,-10.02
2022-12-14T01:04:21.089Z,-10.06
2022-12-14T01:06:53.157Z,-10.12
2022-12-14T01:09:24.965Z,-10.16
2022-12-14T01:11:53.930Z,-10.18
2022-12-14T01:14:23.413Z,-10.24
2022-12-14T01:16:52.178Z,-10.31
2022-12-14T01:19:20.829Z,-10.35
2022-12-14T01:21:49.576Z,-10.37
2022-12-14T01:24:19.406Z,-10.41
2022-12-14T01:26:48.381Z,-10.46
2022-12-14T01:29:17.254Z,-10.49
2022-12-14T01:31:48.841Z,-10.50
2022-12-14T01:34:18.746Z,-10.54
2022-12-14T01:36:48.552Z,-10.59
2022-12-14T01:39:18.887Z,-10.62
2022-12-14T01:41:51.645Z,-10.63
2022-12-14T01:44:52.764Z,-10.65
2022-12-14T01:47:28.634Z,-10.67
2022-12-14T01:50:03.013Z,-10.69
2022-12-14T01:52:39.113Z,-10.72
2022-12-14T01:55:13.765Z,-10.75
2022-12-14T01:57:47.687Z,-10.83
2022-12-14T02:00:18.087Z,-10.94
2022-12-14T02:02:53.006Z,-10.95
2022-12-14T02:05:25.131Z,-10.97
2022-12-14T02:07:56.483Z,-10.99
2022-12-14T02:10:29.379Z,-11.00
2022-12-14T02:13:04.141Z,-11.03
2022-12-14T02:15:35.284Z,-11.05
2022-12-14T02:18:09.201Z,-11.07
2022-12-14T02:20:53.343Z,-11.16
2022-12-14T02:23:57.740Z,-11.24
2022-12-14T02:26:57.143Z,-11.22
2022-12-14T02:29:56.219Z,-11.27
2022-12-14T02:32:50.158Z,-11.33
2022-12-14T02:35:30.606Z,-11.35
2022-12-14T02:38:12.714Z,-11.37
2022-12-14T02:40:54.459Z,-11.37
2022-12-14T02:43:31.152Z,-11.36
2022-12-14T02:46:10.510Z,-11.38
2022-12-14T02:48:45.292Z,-11.40
2022-12-14T02:51:24.754Z,-11.40
2022-12-14T02:54:01.156Z,-11.43
2022-12-14T02:56:37.147Z,-11.45
2022-12-14T02:59:10.451Z,-11.48
2022-12-14T03:01:41.871Z,-11.49
2022-12-14T03:04:16.181Z,-11.49
2022-12-14T03:06:57.260Z,-11.50
2022-12-14T03:09:29.831Z,-11.53
2022-12-14T03:12:04.484Z,-11.57
2022-12-14T03:14:39.066Z,-11.60
2022-12-14T03:17:17.579Z,-11.61
2022-12-14T03:19:53.257Z,-11.64
2022-12-14T03:22:28.721Z,-11.65
2022-12-14T03:25:01.626Z,-11.66
2022-12-14T03:27:33.928Z,-11.67
2022-12-14T03:30:08.577Z,-11.68
2022-12-14T03:32:44.737Z,-11.70
2022-12-14T03:35:19.465Z,-11.72
2022-12-14T03:37:54.883Z,-11.76
2022-12-14T03:40:30.939Z,-11.76
2022-12-14T03:43:06.931Z,-11.79
2022-12-14T03:45:46.938Z,-11.77
2022-12-14T03:48:27.864Z,-11.77
2022-12-14T03:51:07.332Z,-11.80
2022-12-14T03:53:43.925Z,-11.80
2022-12-14T03:56:19.869Z,-11.81
2022-12-14T03:59:01.419Z,-11.81
2022-12-14T04:01:40.394Z,-11.84
2022-12-14T04:04:15.611Z,-11.87
2022-12-14T04:06:52.957Z,-11.90
2022-12-14T04:09:32.239Z,-11.92
2022-12-14T04:12:26.756Z,-11.93
2022-12-14T04:15:20.790Z,-11.94
2022-12-14T04:18:27.700Z,-11.93
2022-12-14T04:21:02.002Z,-11.96
2022-12-14T04:23:52.601Z,-11.98
2022-12-14T04:26:32.340Z,-12.00
2022-12-14T04:29:25.983Z,-12.00
2022-12-14T04:32:00.680Z,-12.01
2022-12-14T04:34:32.590Z,-12.02
2022-12-14T04:37:06.139Z,-12.02
2022-12-14T04:39:40.413Z,-12.03
2022-12-14T04:42:13.964Z,-12.03
2022-12-14T04:44:47.445Z,-12.05
2022-12-14T04:47:19.454Z,-12.06
2022-12-14T04:49:54.828Z,-12.07
2022-12-14T04:52:31.239Z,-12.10
2022-12-14T04:55:05.465Z,-12.12
2022-12-14T04:57:41.247Z,-12.15
2022-12-14T05:00:14.409Z,-12.22
2022-12-14T05:03:07.356Z,-12.27
2022-12-14T05:05:42.932Z,-12.29
2022-12-14T05:08:22.760Z,-12.28
2022-12-14T05:11:21.866Z,-12.29
2022-12-14T05:13:52.112Z,-12.32
2022-12-14T05:16:25.627Z,-12.33
2022-12-14T05:18:54.728Z,-12.36
2022-12-14T05:21:42.089Z,-12.37
2022-12-14T05:24:10.910Z,-12.37
2022-12-14T05:26:41.926Z,-12.36
2022-12-14T05:29:14.480Z,-12.34
2022-12-14T05:31:49.311Z,-12.32
2022-12-14T05:34:18.947Z,-12.31
2022-12-14T05:36:47.833Z,-12.34
2022-12-14T05:39:17.509Z,-12.33
2022-12-14T05:41:47.871Z,-12.33
2022-12-14T05:44:20.073Z,-12.33
2022-12-14T05:46:49.870Z,-12.32
2022-12-14T05:49:21.736Z,-12.30
2022-12-14T05:51:50.662Z,-12.27
2022-12-14T05:54:20.588Z,-12.27
2022-12-14T05:56:50.979Z,-12.24
2022-12-14T05:59:20.452Z,-12.22
2022-12-14T06:01:52.099Z,-12.20
2022-12-14T06:04:23.108Z,-12.19
2022-12-14T06:06:52.513Z,-12.16
2022-12-14T06:09:22.400Z,-12.13
2022-12-14T06:11:52.312Z,-12.09
2022-12-14T06:14:23.676Z,-12.07
2022-12-14T06:16:52.380Z,-12.04
2022-12-14T06:19:21.336Z,-12.04
2022-12-14T06:21:52.933Z,-12.04
2022-12-14T06:24:23.171Z,-12.02
2022-12-14T06:26:52.367Z,-12.02
2022-12-14T06:29:22.682Z,-12.02
2022-12-14T06:31:52.656Z,-12.00
2022-12-14T06:34:26.369Z,-11.99
2022-12-14T06:36:57.274Z,-11.98
2022-12-14T06:39:28.843Z,-11.95
2022-12-14T06:41:58.738Z,-11.93
2022-12-14T06:44:27.550Z,-11.90
2022-12-14T06:46:57.056Z,-11.89
2022-12-14T06:49:32.485Z,-11.86
2022-12-14T06:52:01.181Z,-11.86
2022-12-14T06:54:30.232Z,-11.83
2022-12-14T06:56:58.948Z,-11.81
2022-12-14T06:59:28.218Z,-11.78
2022-12-14T07:01:57.211Z,-11.74
2022-12-14T07:04:25.952Z,-11.72
2022-12-14T07:06:54.790Z,-11.70
2022-12-14T07:09:24.310Z,-11.66
2022-12-14T07:11:52.960Z,-11.61
2022-12-14T07:14:24.824Z,-11.57
2022-12-14T07:16:54.023Z,-11.52
2022-12-14T07:19:22.989Z,-11.48
2022-12-14T07:21:54.069Z,-11.42
2022-12-14T07:24:22.915Z,-11.38
2022-12-14T07:26:52.729Z,-11.35
2022-12-14T07:29:21.734Z,-11.30
2022-12-14T07:31:50.847Z,-11.27
2022-12-14T07:34:20.141Z,-11.22
2022-12-14T07:36:51.370Z,-11.17
2022-12-14T07:39:21.189Z,-11.10
2022-12-14T07:41:50.418Z,-11.07
2022-12-14T07:44:22.698Z,-10.98
2022-12-14T07:46:54.410Z,-10.93
2022-12-14T07:49:23.660Z,-10.89
2022-12-14T07:51:53.350Z,-10.82
2022-12-14T07:54:25.948Z,-10.77
2022-12-14T07:56:54.689Z,-10.69
2022-12-14T07:59:23.677Z,-10.62
2022-12-14T08:01:55.108Z,-10.55
2022-12-14T08:04:24.277Z,-10.48
2022-12-14T08:06:53.166Z,-10.41
2022-12-14T08:09:21.980Z,-10.36
2022-12-14T08:11:50.754Z,-10.28
2022-12-14T08:14:19.863Z,-10.21
2022-12-14T08:16:50.432Z,-10.13
2022-12-14T08:19:20.578Z,-10.07
2022-12-14T08:21:49.297Z,-9.99
2022-12-14T08:24:18.188Z,-9.93
2022-12-14T08:26:49.563Z,-9.86
2022-12-14T08:29:21.862Z,-9.77
2022-12-14T08:31:50.777Z,-9.68
2022-12-14T08:34:22.260Z,-9.58
2022-12-14T08:36:50.971Z,-9.50
2022-12-14T08:39:19.844Z,-9.40
2022-12-14T08:41:48.660Z,-9.31
2022-12-14T08:44:18.254Z,-9.21
2022-12-14T08:46:50.592Z,-9.11
2022-12-14T08:49:25.354Z,-9.03
2022-12-14T08:51:57.919Z,-8.92
2022-12-14T08:54:26.799Z,-8.85
2022-12-14T08:56:55.546Z,-8.74
2022-12-14T08:59:51.987Z,-8.66
2022-12-14T09:02:13.505Z,-8.56
2022-12-14T09:04:43.705Z,-8.13
2022-12-14T09:07:12.597Z,-7.62
2022-12-14T09:09:41.883Z,-7.38
2022-12-14T09:12:12.281Z,-7.47
2022-12-14T09:14:41.306Z,-7.46
2022-12-14T09:17:10.005Z,-7.44
2022-12-14T09:19:38.876Z,-7.43
2022-12-14T09:22:07.734Z,-7.41
2022-12-14T09:24:36.996Z,-7.37
2022-12-14T09:27:05.657Z,-7.36
2022-12-14T09:29:34.554Z,-7.35
2022-12-14T09:32:03.546Z,-7.34
2022-12-14T09:34:32.350Z,-7.28
2022-12-14T09:37:04.153Z,-7.23
2022-12-14T09:39:35.259Z,-7.17
2022-12-14T09:42:20.346Z,-7.13
2022-12-14T09:45:01.287Z,-7.04
2022-12-14T09:47:35.501Z,-6.96
2022-12-14T09:50:05.172Z,-6.36
2022-12-14T09:52:39.572Z,-4.01
2022-12-14T09:55:20.190Z,-2.17
2022-12-14T09:57:53.499Z,-0.76
2022-12-14T10:00:23.178Z,0.33
2022-12-14T10:03:07.863Z,1.28
2022-12-14T10:06:01.207Z,2.11
2022-12-14T10:08:35.313Z,2.63
2022-12-14T10:11:11.344Z,3.06
2022-12-14T10:13:56.489Z,3.53
2022-12-14T10:16:31.972Z,3.88
2022-12-14T10:19:24.241Z,4.14
2022-12-14T10:21:57.122Z,4.46
2022-12-14T10:24:30.722Z,4.82
2022-12-14T10:27:01.387Z,4.81
2022-12-14T10:29:37.766Z,4.82
2022-12-14T10:32:19.334Z,4.85
2022-12-14T10:34:48.543Z,4.88
2022-12-14T10:37:30.796Z,4.86
2022-12-14T10:40:29.221Z,4.76
2022-12-14T10:43:21.596Z,4.74
2022-12-14T10:46:06.115Z,4.57
2022-12-14T10:48:50.398Z,4.53
2022-12-14T10:51:24.923Z,4.33
2022-12-14T10:53:59.938Z,4.19
2022-12-14T10:56:31.907Z,4.11
2022-12-14T10:59:26.886Z,3.84
2022-12-14T11:02:05.718Z,3.33
2022-12-14T11:04:39.307Z,3.03
2022-12-14T11:07:14.810Z,2.57
2022-12-14T11:09:46.802Z,1.38
2022-12-14T11:12:23.049Z,0.41
2022-12-14T11:14:55.550Z,-0.30
2022-12-14T11:17:37.343Z,-0.95
2022-12-14T11:20:17.461Z,-1.56
2022-12-14T11:22:50.419Z,-2.02
2022-12-14T11:25:32.066Z,-2.25
2022-12-14T11:28:36.170Z,-2.58
2022-12-14T11:31:12.193Z,-2.93
2022-12-14T11:33:49.809Z,-3.26
2022-12-14T11:36:27.289Z,-3.46
2022-12-14T11:38:57.419Z,-3.61
2022-12-14T11:41:30.654Z,-3.73
2022-12-14T11:44:21.635Z,-3.88
2022-12-14T11:46:54.639Z,-4.01
2022-12-14T11:49:29.140Z,-4.08
2022-12-14T11:51:58.930Z,-4.12
2022-12-14T11:54:28.367Z,-4.15
2022-12-14T11:57:01.606Z,-4.16
2022-12-14T11:59:38.501Z,-4.20
2022-12-14T12:02:17.876Z,-4.23
2022-12-14T12:04:52.852Z,-4.23
2022-12-14T12:07:26.080Z,-4.23
2022-12-14T12:09:55.475Z,-4.21
2022-12-14T12:12:24.255Z,-4.20
2022-12-14T12:14:58.255Z,-4.19
2022-12-14T12:17:40.396Z,-4.19
2022-12-14T12:20:28.132Z,-4.18
2022-12-14T12:23:03.175Z,-4.22
2022-12-14T12:25:37.658Z,-4.25
2022-12-14T12:28:16.283Z,-4.27
2022-12-14T12:30:50.988Z,-4.28
2022-12-14T12:33:32.597Z,-4.31
2022-12-14T12:36:04.845Z,-4.37
2022-12-14T12:38:49.760Z,-4.42
2022-12-14T13:07:44.815Z,-5.03
2022-12-14T13:10:19.777Z,-5.09
2022-12-14T13:12:51.527Z,-5.15
2022-12-14T13:15:27.247Z,-5.20
2022-12-14T13:18:00.324Z,-5.24
2022-12-14T13:20:31.857Z,-5.31
2022-12-14T13:23:21.648Z,-5.37
2022-12-14T13:26:06.279Z,-5.42
2022-12-14T13:28:50.514Z,-5.49
2022-12-14T13:31:35.555Z,-5.55
2022-12-14T13:34:28.368Z,-5.61
2022-12-14T13:37:20.310Z,-5.68
2022-12-14T13:40:20.316Z,-5.72
2022-12-14T13:42:59.022Z,-5.78
2022-12-14T13:45:40.077Z,-5.82
2022-12-14T13:48:20.263Z,-5.89
2022-12-14T13:51:01.821Z,-5.95
2022-12-14T13:53:38.134Z,-6.00
2022-12-14T13:56:08.028Z,-6.03
2022-12-14T13:58:43.127Z,-6.09
2022-12-14T14:01:16.083Z,-6.15
2022-12-14T14:03:56.394Z,-6.21
2022-12-14T14:06:41.430Z,-6.27
2022-12-14T14:09:59.167Z,-6.33
2022-12-14T14:12:38.729Z,-6.41
2022-12-14T14:16:11.251Z,-6.47
2022-12-14T14:18:47.200Z,-6.54
2022-12-14T14:21:52.472Z,-6.59
2022-12-14T14:24:27.584Z,-6.65
2022-12-14T14:27:10.707Z,-6.71
2022-12-14T14:29:46.670Z,-6.75
2022-12-14T14:32:38.234Z,-6.80
2022-12-14T14:35:22.865Z,-6.85
2022-12-14T14:38:01.531Z,-6.88
2022-12-14T14:41:06.672Z,-6.92
2022-12-14T14:43:32.160Z,-6.96
2022-12-14T14:46:07.285Z,-6.98
2022-12-14T14:48:40.700Z,-7.00
2022-12-14T14:51:21.197Z,-7.03
2022-12-14T14:57:55.407Z,-7.10
2022-12-14T15:00:25.178Z,-7.12
2022-12-14T15:02:55.552Z,-7.17
2022-12-14T15:05:43.820Z,-7.20
2022-12-14T15:08:22.529Z,-7.25
2022-12-14T15:10:54.000Z,-7.30
2022-12-14T15:13:28.429Z,-7.33
2022-12-14T15:15:58.971Z,-7.35
2022-12-14T15:18:30.583Z,-7.37
2022-12-14T15:21:03.432Z,-7.41
2022-12-14T15:23:38.002Z,-7.43
2022-12-14T15:26:16.963Z,-7.48
2022-12-14T15:28:52.795Z,-7.49
2022-12-14T15:31:30.935Z,-7.52
2022-12-14T15:34:01.260Z,-7.53
2022-12-14T15:36:34.954Z,-7.54
2022-12-14T15:39:04.499Z,-7.56
2022-12-14T15:41:35.312Z,-7.56
2022-12-14T15:44:20.473Z,-7.57
2022-12-14T15:46:55.103Z,-7.60
2022-12-14T15:49:24.236Z,-7.61
2022-12-14T15:51:57.125Z,-7.62
2022-12-14T15:54:28.854Z,-7.60
2022-12-14T15:56:59.941Z,-7.60
2022-12-14T15:59:32.031Z,-7.59
2022-12-14T16:02:15.101Z,-7.59
2022-12-14T16:04:45.524Z,-7.60
2022-12-14T16:07:19.384Z,-7.57
2022-12-14T16:09:51.952Z,-7.57
2022-12-14T16:12:24.294Z,-7.55
2022-12-14T16:14:56.910Z,-7.56
2022-12-14T16:17:31.615Z,-7.54
2022-12-14T16:20:04.797Z,-7.54
2022-12-14T16:22:38.363Z,-7.53
2022-12-14T16:25:19.817Z,-7.53
2022-12-14T16:27:50.929Z,-7.51
2022-12-14T16:30:30.640Z,-7.51
2022-12-14T16:33:18.250Z,-7.49
2022-12-14T16:35:58.078Z,-7.48
2022-12-14T16:38:27.277Z,-7.47
2022-12-14T16:41:05.187Z,-7.46
2022-12-14T16:43:37.613Z,-7.45
2022-12-14T16:46:21.129Z,-7.43
2022-12-14T16:49:19.466Z,-7.43
2022-12-14T16:52:07.237Z,-7.41
2022-12-14T16:54:41.008Z,-7.39
2022-12-14T16:57:20.443Z,-7.39
2022-12-14T17:00:02.266Z,-7.38
2022-12-14T17:02:36.308Z,-7.37
2022-12-14T17:05:16.530Z,-7.37
2022-12-14T17:07:47.665Z,-7.36
2022-12-14T17:10:25.231Z,-7.35
2022-12-14T17:13:01.929Z,-7.33
2022-12-14T17:15:39.123Z,-7.31
2022-12-14T17:18:13.987Z,-7.30
2022-12-14T17:20:46.763Z,-7.29
2022-12-14T17:23:18.520Z,-7.27
2022-12-14T17:25:49.024Z,-7.26
2022-12-14T17:28:25.048Z,-7.24
2022-12-14T17:30:57.538Z,-7.23
2022-12-14T17:33:28.792Z,-7.20
2022-12-14T17:35:58.478Z,-7.19
2022-12-14T17:38:27.508Z,-7.17
2022-12-14T17:41:02.863Z,-7.15
2022-12-14T17:43:35.600Z,-7.15
2022-12-14T17:46:07.131Z,-7.12
2022-12-14T17:48:40.658Z,-7.10
2022-12-14T17:51:25.166Z,-7.09
2022-12-14T17:53:56.150Z,-7.07
2022-12-14T17:56:30.282Z,-7.05
2022-12-14T17:59:01.714Z,-7.04
2022-12-14T18:04:22.535Z,-7.02
2022-12-14T18:07:00.909Z,-7.00
2022-12-14T18:09:34.040Z,-6.99
2022-12-14T18:14:55.000Z,-6.95
2022-12-14T18:17:25.149Z,-6.93
2022-12-14T18:19:59.457Z,-6.91
2022-12-14T18:22:28.989Z,-6.89
2022-12-14T18:25:08.507Z,-6.88
2022-12-14T18:27:38.518Z,-6.86
2022-12-14T18:30:12.120Z,-6.84
2022-12-14T18:32:51.881Z,-6.83
2022-12-14T18:35:26.226Z,-6.80
2022-12-14T18:37:56.833Z,-6.79
2022-12-14T18:40:29.496Z,-6.77
2022-12-14T18:42:58.893Z,-6.75
2022-12-14T18:45:33.806Z,-6.73
2022-12-14T18:48:10.879Z,-6.71
2022-12-14T18:50:49.667Z,-6.69
2022-12-14T18:53:21.760Z,-6.68
2022-12-14T18:56:01.712Z,-6.65
2022-12-14T18:58:45.581Z,-6.63
2022-12-14T19:01:18.520Z,-6.61
2022-12-14T19:03:49.012Z,-6.59
2022-12-14T19:06:43.615Z,-6.59
2022-12-14T19:09:13.413Z,-6.58
2022-12-14T19:11:48.134Z,-6.55
2022-12-14T19:14:20.446Z,-6.54
2022-12-14T19:16:52.182Z,-6.53
2022-12-14T19:19:24.296Z,-6.50
2022-12-14T19:21:57.615Z,-6.50
2022-12-14T19:24:27.760Z,-6.48
2022-12-14T19:26:58.519Z,-6.44
2022-12-14T19:29:28.452Z,-6.44
2022-12-14T19:32:05.327Z,-6.43
2022-12-14T19:34:36.841Z,-6.41
2022-12-14T19:37:06.967Z,-6.38
2022-12-14T19:39:37.721Z,-6.37
2022-12-14T19:42:07.103Z,-6.35
2022-12-14T19:44:36.860Z,-6.32
2022-12-14T19:47:06.449Z,-6.30
2022-12-14T19:49:36.086Z,-6.29
2022-12-14T19:52:09.080Z,-6.26
2022-12-14T19:54:39.559Z,-6.25
2022-12-14T19:57:11.081Z,-6.24
2022-12-14T19:59:44.876Z,-6.24
2022-12-14T20:02:15.087Z,-6.23
2022-12-14T20:04:47.029Z,-6.22
2022-12-14T20:07:16.682Z,-6.21
2022-12-14T20:09:47.685Z,-6.20
2022-12-14T20:12:18.060Z,-6.18
2022-12-14T20:14:49.344Z,-6.16
2022-12-14T20:17:19.387Z,-6.15
2022-12-14T20:19:48.789Z,-6.14
2022-12-14T20:22:18.165Z,-6.12
2022-12-14T20:24:48.277Z,-6.11
2022-12-14T20:27:20.018Z,-6.11
2022-12-14T20:29:50.973Z,-6.08
2022-12-14T20:32:20.097Z,-6.06
2022-12-14T20:34:49.567Z,-6.03
2022-12-14T20:37:34.276Z,-6.02
2022-12-14T20:40:02.415Z,-6.02
2022-12-14T20:42:31.431Z,-6.01
2022-12-14T20:45:06.702Z,-5.99
2022-12-14T20:47:36.180Z,-5.98
2022-12-14T20:50:06.258Z,-5.96
2022-12-14T20:52:35.211Z,-5.94
2022-12-14T20:55:04.672Z,-5.92
2022-12-14T20:57:33.747Z,-5.91
2022-12-14T21:00:05.620Z,-5.90
2022-12-14T21:02:34.439Z,-5.91
2022-12-14T21:05:04.421Z,-5.89
2022-12-14T21:07:33.253Z,-5.86
2022-12-14T21:10:04.944Z,-5.86
2022-12-14T21:12:36.375Z,-5.84
2022-12-14T21:15:06.841Z,-5.83
2022-12-14T21:17:35.729Z,-5.82
2022-12-14T21:20:05.702Z,-5.83
2022-12-14T21:22:35.163Z,-5.80
2022-12-14T21:25:06.385Z,-5.79
2022-12-14T21:27:38.406Z,-5.76
2022-12-14T21:30:13.477Z,-5.75
2022-12-14T21:32:42.392Z,-5.74
2022-12-14T21:35:12.695Z,-5.72
2022-12-14T21:37:42.267Z,-5.70
2022-12-14T21:40:33.693Z,-5.68
2022-12-14T21:43:07.249Z,-5.66
2022-12-14T21:45:38.975Z,-5.64
2022-12-14T21:48:08.007Z,-5.64
2022-12-14T21:50:42.318Z,-5.63
2022-12-14T21:53:11.359Z,-5.61
2022-12-14T21:55:49.336Z,-5.60
2022-12-14T21:58:18.223Z,-5.60
2022-12-14T22:00:47.772Z,-5.58
2022-12-14T22:03:16.988Z,-5.55
2022-12-14T22:05:46.573Z,-5.55
2022-12-14T22:08:15.299Z,-5.53
2022-12-14T22:10:44.273Z,-5.50
2022-12-14T22:13:15.486Z,-5.49
2022-12-14T22:15:46.223Z,-5.47
2022-12-14T22:18:18.384Z,-5.48
2022-12-14T22:20:50.638Z,-5.48
2022-12-14T22:23:19.598Z,-5.47
2022-12-14T22:25:50.186Z,-5.46
2022-12-14T22:28:18.929Z,-5.45
2022-12-14T22:30:48.370Z,-5.44
2022-12-14T22:33:17.910Z,-5.43
2022-12-14T22:35:47.516Z,-5.42
2022-12-14T22:38:16.586Z,-5.43
2022-12-14T22:40:46.098Z,-5.43
2022-12-14T22:43:14.984Z,-5.41
2022-12-14T22:45:44.317Z,-5.41
2022-12-14T22:48:14.004Z,-5.41
2022-12-14T22:50:43.360Z,-5.41
2022-12-14T22:53:13.445Z,-5.43
2022-12-14T22:55:46.296Z,-5.42
2022-12-14T22:58:19.723Z,-5.40
2022-12-14T23:00:49.668Z,-5.40
2022-12-14T23:03:18.489Z,-5.40
2022-12-14T23:05:50.223Z,-5.40
2022-12-14T23:08:18.957Z,-5.40
2022-12-14T23:11:06.685Z,-5.40
2022-12-14T23:13:53.769Z,-5.40
2022-12-14T23:16:41.074Z,-5.41
2022-12-14T23:19:28.175Z,-5.41
2022-12-14T23:22:15.156Z,-5.43
2022-12-14T23:25:02.230Z,-5.45
2022-12-14T23:27:49.328Z,-5.45
2022-12-14T23:30:37.227Z,-5.45
2022-12-14T23:33:24.286Z,-5.47
2022-12-14T23:36:11.398Z,-5.46
2022-12-14T23:38:58.892Z,-5.45
2022-12-14T23:41:47.068Z,-5.47
2022-12-14T23:44:34.423Z,-5.47
2022-12-14T23:47:24.300Z,-5.48
2022-12-14T23:50:11.768Z,-5.50
2022-12-14T23:52:59.046Z,-5.51
2022-12-14T23:55:49.716Z,-5.52
2022-12-14T23:58:37.047Z,-5.54
